createdAt,value
2022-08-27T00:00:58.798Z,98232.00
2022-08-27T00:03:28.416Z,98231.00
2022-08-27T00:05:56.628Z,98228.00
2022-08-27T00:08:25.413Z,98235.00
2022-08-27T00:10:53.619Z,98234.00
2022-08-27T00:13:21.832Z,98224.00
2022-08-27T00:15:50.014Z,98229.00
2022-08-27T00:18:22.490Z,98227.00
2022-08-27T00:20:52.361Z,98226.00
2022-08-27T00:23:20.630Z,98220.00
2022-08-27T00:25:48.863Z,98231.00
2022-08-27T00:28:17.087Z,98228.00
2022-08-27T00:30:46.487Z,98235.00
2022-08-27T00:33:14.720Z,98226.00
2022-08-27T00:35:42.932Z,98238.00
2022-08-27T00:38:12.652Z,98241.00
2022-08-27T00:40:41.466Z,98233.00
2022-08-27T00:43:09.731Z,98235.00
2022-08-27T00:45:38.955Z,98242.00
2022-08-27T00:48:07.644Z,98234.00
2022-08-27T00:50:37.876Z,98233.00
2022-08-27T00:53:08.308Z,98236.00
2022-08-27T00:55:40.090Z,98242.00
2022-08-27T00:58:10.775Z,98240.00
2022-08-27T01:00:39.209Z,98233.00
2022-08-27T01:03:07.508Z,98238.00
2022-08-27T01:05:36.088Z,98242.00
2022-08-27T01:08:06.790Z,98238.00
2022-08-27T01:10:35.058Z,98239.00
2022-08-27T01:13:04.707Z,98249.00
2022-08-27T01:15:32.956Z,98229.00
2022-08-27T01:18:01.213Z,98231.00
2022-08-27T01:20:30.813Z,98243.00
2022-08-27T01:23:03.292Z,98238.00
2022-08-27T01:25:32.834Z,98243.00
2022-08-27T01:28:02.945Z,98248.00
2022-08-27T01:30:31.378Z,98236.00
2022-08-27T01:32:59.618Z,98254.00
2022-08-27T01:35:28.009Z,98253.00
2022-08-27T01:37:57.112Z,98250.00
2022-08-27T01:40:25.714Z,98252.00
2022-08-27T01:42:56.310Z,98255.00
2022-08-27T01:45:25.823Z,98256.00
2022-08-27T01:47:54.063Z,98250.00
2022-08-27T01:50:23.390Z,98251.00
2022-08-27T01:52:51.728Z,98258.00
2022-08-27T01:55:21.517Z,98247.00
2022-08-27T01:57:49.727Z,98246.00
2022-08-27T02:00:21.904Z,98245.00
2022-08-27T02:02:50.155Z,98242.00
2022-08-27T02:05:18.606Z,98249.00
2022-08-27T02:07:46.903Z,98245.00
2022-08-27T02:10:17.602Z,98257.00
2022-08-27T02:12:45.852Z,98231.00
2022-08-27T02:15:14.268Z,98222.00
2022-08-27T02:17:44.127Z,98220.00
2022-08-27T02:20:12.541Z,98221.00
2022-08-27T02:22:40.955Z,98221.00
2022-08-27T02:25:10.294Z,98219.00
2022-08-27T02:27:38.775Z,98230.00
2022-08-27T02:30:07.892Z,98227.00
2022-08-27T02:32:36.240Z,98221.00
2022-08-27T02:35:06.435Z,98219.00
2022-08-27T02:37:37.598Z,98221.00
2022-08-27T02:40:06.906Z,98223.00
2022-08-27T02:42:35.149Z,98218.00
2022-08-27T02:45:03.365Z,98208.00
2022-08-27T02:47:31.593Z,98213.00
2022-08-27T02:50:00.006Z,98212.00
2022-08-27T02:52:29.709Z,98207.00
2022-08-27T02:54:57.939Z,98208.00
2022-08-27T02:57:26.585Z,98210.00
2022-08-27T02:59:54.946Z,98208.00
2022-08-27T03:02:23.276Z,98206.00
2022-08-27T03:04:54.341Z,98210.00
2022-08-27T03:07:24.369Z,98208.00
2022-08-27T03:09:53.995Z,98202.00
2022-08-27T03:12:22.908Z,98206.00
2022-08-27T03:14:53.203Z,98201.00
2022-08-27T03:17:38.994Z,98200.00
2022-08-27T03:20:08.750Z,98193.00
2022-08-27T03:22:36.968Z,98196.00
2022-08-27T03:25:07.442Z,98194.00
2022-08-27T03:27:35.701Z,98194.00
2022-08-27T03:30:04.357Z,98190.00
2022-08-27T03:32:32.569Z,98184.00
2022-08-27T03:35:00.828Z,98187.00
2022-08-27T03:37:29.222Z,98186.00
2022-08-27T03:39:57.493Z,98186.00
2022-08-27T03:42:27.152Z,98195.00
2022-08-27T03:44:55.479Z,98192.00
2022-08-27T03:47:23.804Z,98172.00
2022-08-27T03:49:52.043Z,98183.00
2022-08-27T03:52:20.980Z,98192.00
2022-08-27T03:54:50.223Z,98187.00
2022-08-27T03:57:18.433Z,98189.00
2022-08-27T03:59:48.205Z,98191.00
2022-08-27T04:02:21.275Z,98198.00
2022-08-27T04:04:49.623Z,98182.00
2022-08-27T04:07:17.906Z,98181.00
2022-08-27T04:09:46.152Z,98183.00
2022-08-27T04:12:14.392Z,98181.00
2022-08-27T04:14:43.146Z,98175.00
2022-08-27T04:17:16.294Z,98179.00
2022-08-27T04:19:44.597Z,98188.00
2022-08-27T04:22:13.088Z,98183.00
2022-08-27T04:24:41.306Z,98185.00
2022-08-27T04:27:09.534Z,98198.00
2022-08-27T04:29:37.740Z,98203.00
2022-08-27T04:32:08.111Z,98201.00
2022-08-27T04:34:38.112Z,98206.00
2022-08-27T04:37:06.592Z,98203.00
2022-08-27T04:39:34.846Z,98207.00
2022-08-27T04:42:03.130Z,98213.00
2022-08-27T04:44:32.381Z,98214.00
2022-08-27T04:47:02.284Z,98217.00
2022-08-27T04:49:31.196Z,98216.00
2022-08-27T04:52:03.209Z,98231.00
2022-08-27T04:54:32.625Z,98218.00
2022-08-27T04:57:01.648Z,98218.00
2022-08-27T04:59:30.097Z,98226.00
2022-08-27T05:01:58.342Z,98224.00
2022-08-27T05:04:26.634Z,98230.00
2022-08-27T05:06:55.016Z,98240.00
2022-08-27T05:09:26.651Z,98234.00
2022-08-27T05:11:55.579Z,98237.00
2022-08-27T05:14:24.232Z,98232.00
2022-08-27T05:16:52.721Z,98240.00
2022-08-27T05:19:21.134Z,98240.00
2022-08-27T05:21:50.087Z,98248.00
2022-08-27T05:24:18.375Z,98239.00
2022-08-27T05:26:48.157Z,98238.00
2022-08-27T05:29:16.699Z,98250.00
2022-08-27T05:31:47.889Z,98249.00
2022-08-27T05:34:22.201Z,98253.00
2022-08-27T05:37:00.367Z,98245.00
2022-08-27T05:39:29.247Z,98249.00
2022-08-27T05:41:59.340Z,98253.00
2022-08-27T05:44:43.490Z,98256.00
2022-08-27T05:47:14.678Z,98257.00
2022-08-27T05:49:42.886Z,98262.00
2022-08-27T05:52:12.819Z,98257.00
2022-08-27T05:54:40.993Z,98258.00
2022-08-27T05:57:55.943Z,98256.00
2022-08-27T06:01:08.232Z,98251.00
2022-08-27T06:03:38.713Z,98255.00
2022-08-27T06:06:23.999Z,98255.00
2022-08-27T06:09:20.406Z,98263.00
2022-08-27T06:12:11.116Z,98262.00
2022-08-27T06:14:40.754Z,98271.00
2022-08-27T06:17:08.921Z,98261.00
2022-08-27T06:19:37.139Z,98270.00
2022-08-27T06:22:10.368Z,98269.00
2022-08-27T06:24:40.478Z,98268.00
2022-08-27T06:27:10.606Z,98275.00
2022-08-27T06:29:40.330Z,98283.00
2022-08-27T06:32:10.409Z,98282.00
2022-08-27T06:34:38.708Z,98278.00
2022-08-27T06:37:07.205Z,98267.00
2022-08-27T06:39:36.278Z,98281.00
2022-08-27T06:42:06.505Z,98275.00
2022-08-27T06:44:35.149Z,98280.00
2022-08-27T06:47:04.921Z,98282.00
2022-08-27T06:49:33.675Z,98284.00
2022-08-27T06:52:01.874Z,98289.00
2022-08-27T06:54:30.575Z,98294.00
2022-08-27T06:56:59.632Z,98301.00
2022-08-27T06:59:27.903Z,98304.00
2022-08-27T07:01:56.350Z,98302.00
2022-08-27T07:04:32.681Z,98293.00
2022-08-27T07:07:02.762Z,98291.00
2022-08-27T07:09:32.595Z,98291.00
2022-08-27T07:12:02.050Z,98289.00
2022-08-27T07:14:47.207Z,98290.00
2022-08-27T07:17:53.801Z,98304.00
2022-08-27T07:20:23.424Z,98306.00
2022-08-27T07:22:54.264Z,98303.00
2022-08-27T07:25:22.612Z,98298.00
2022-08-27T07:27:52.524Z,98302.00
2022-08-27T07:30:20.713Z,98310.00
2022-08-27T07:32:50.659Z,98298.00
2022-08-27T07:35:19.017Z,98313.00
2022-08-27T07:37:50.161Z,98306.00
2022-08-27T07:40:18.479Z,98302.00
2022-08-27T07:43:04.390Z,98309.00
2022-08-27T07:45:41.688Z,98307.00
2022-08-27T07:48:12.944Z,98302.00
2022-08-27T07:50:41.186Z,98313.00
2022-08-27T07:53:16.866Z,98321.00
2022-08-27T07:55:45.216Z,98311.00
2022-08-27T07:58:18.583Z,98305.00
2022-08-27T08:00:47.095Z,98317.00
2022-08-27T08:03:17.863Z,98312.00
2022-08-27T08:05:51.911Z,98312.00
2022-08-27T08:08:21.669Z,98318.00
2022-08-27T08:10:52.878Z,98317.00
2022-08-27T08:13:21.114Z,98310.00
2022-08-27T08:15:50.784Z,98313.00
2022-08-27T08:18:19.000Z,98311.00
2022-08-27T08:20:57.963Z,98317.00
2022-08-27T08:23:29.824Z,98312.00
2022-08-27T08:25:58.593Z,98321.00
2022-08-27T08:28:28.781Z,98320.00
2022-08-27T08:30:57.312Z,98320.00
2022-08-27T08:33:25.764Z,98320.00
2022-08-27T08:36:03.762Z,98326.00
2022-08-27T08:38:34.426Z,98320.00
2022-08-27T08:41:02.602Z,98325.00
2022-08-27T08:43:33.895Z,98326.00
2022-08-27T08:46:06.456Z,98327.00
2022-08-27T08:48:34.699Z,98323.00
2022-08-27T08:51:03.990Z,98331.00
2022-08-27T08:53:40.027Z,98335.00
2022-08-27T08:56:14.397Z,98336.00
2022-08-27T08:58:46.096Z,98335.00
2022-08-27T09:01:16.444Z,98337.00
2022-08-27T09:03:49.828Z,98335.00
2022-08-27T09:06:44.965Z,98331.00
2022-08-27T09:09:20.867Z,98333.00
2022-08-27T09:11:57.457Z,98338.00
2022-08-27T09:14:32.186Z,98338.00
2022-08-27T09:17:01.881Z,98339.00
2022-08-27T09:19:30.944Z,98344.00
2022-08-27T09:22:03.168Z,98338.00
2022-08-27T09:24:38.816Z,98341.00
2022-08-27T09:27:09.030Z,98343.00
2022-08-27T09:29:38.812Z,98339.00
2022-08-27T09:32:10.144Z,98335.00
2022-08-27T09:34:39.444Z,98338.00
2022-08-27T09:37:15.728Z,98335.00
2022-08-27T09:39:54.630Z,98332.00
2022-08-27T09:42:32.495Z,98331.00
2022-08-27T09:45:00.952Z,98335.00
2022-08-27T09:47:32.465Z,98334.00
2022-08-27T09:50:07.166Z,98333.00
2022-08-27T09:52:37.998Z,98335.00
2022-08-27T09:55:09.498Z,98329.00
2022-08-27T09:57:41.624Z,98336.00
2022-08-27T10:00:14.915Z,98332.00
2022-08-27T10:02:54.279Z,98330.00
2022-08-27T10:05:29.166Z,98331.00
2022-08-27T10:07:59.537Z,98333.00
2022-08-27T10:10:36.721Z,98335.00
2022-08-27T10:13:16.153Z,98325.00
2022-08-27T10:15:50.534Z,98331.00
2022-08-27T10:18:22.413Z,98323.00
2022-08-27T10:21:01.081Z,98330.00
2022-08-27T10:23:35.410Z,98326.00
2022-08-27T10:26:24.803Z,98325.00
2022-08-27T10:29:03.075Z,98328.00
2022-08-27T10:31:40.122Z,98327.00
2022-08-27T10:34:22.424Z,98327.00
2022-08-27T10:36:58.386Z,98323.00
2022-08-27T10:39:34.854Z,98327.00
2022-08-27T10:42:12.790Z,98331.00
2022-08-27T10:44:56.255Z,98328.00
2022-08-27T10:47:31.207Z,98329.00
2022-08-27T10:50:03.333Z,98331.00
2022-08-27T10:52:35.666Z,98331.00
2022-08-27T10:55:08.175Z,98340.00
2022-08-27T10:58:00.976Z,98342.00
2022-08-27T11:00:34.401Z,98330.00
2022-08-27T11:03:04.062Z,98337.00
2022-08-27T11:05:37.050Z,98325.00
2022-08-27T11:08:22.243Z,98332.00
2022-08-27T11:11:18.222Z,98335.00
2022-08-27T11:13:52.184Z,98336.00
2022-08-27T11:17:20.880Z,98337.00
2022-08-27T11:23:38.625Z,98324.00
2022-08-27T11:26:54.145Z,98334.00
2022-08-27T11:29:37.159Z,98331.00
2022-08-27T11:32:20.078Z,98327.00
2022-08-27T11:35:11.215Z,98327.00
2022-08-27T11:42:22.162Z,98333.00
2022-08-27T11:45:50.057Z,98324.00
2022-08-27T11:49:22.567Z,98333.00
2022-08-27T11:55:33.491Z,98332.00
2022-08-27T11:58:07.892Z,98324.00
2022-08-27T12:00:40.634Z,98319.00
2022-08-27T12:03:11.604Z,98326.00
2022-08-27T12:05:44.616Z,98333.00
2022-08-27T12:09:08.411Z,98322.00
2022-08-27T12:11:39.626Z,98316.00
2022-08-27T12:14:13.776Z,98325.00
2022-08-27T12:16:47.340Z,98313.00
2022-08-27T12:19:33.965Z,98313.00
2022-08-27T12:22:09.090Z,98316.00
2022-08-27T12:24:55.579Z,98311.00
2022-08-27T12:27:45.689Z,98314.00
2022-08-27T12:30:37.307Z,98312.00
2022-08-27T12:33:39.243Z,98301.00
2022-08-27T12:36:27.867Z,98304.00
2022-08-27T12:40:00.689Z,98301.00
2022-08-27T12:42:30.082Z,98298.00
2022-08-27T12:44:59.790Z,98303.00
2022-08-27T12:47:28.009Z,98314.00
2022-08-27T12:50:14.259Z,98300.00
2022-08-27T12:52:52.611Z,98309.00
2022-08-27T12:55:25.494Z,98303.00
2022-08-27T12:57:57.245Z,98301.00
2022-08-27T13:00:26.878Z,98300.00
2022-08-27T13:03:16.883Z,98301.00
2022-08-27T13:05:49.730Z,98302.00
2022-08-27T13:08:22.728Z,98308.00
2022-08-27T13:10:51.251Z,98292.00
2022-08-27T13:13:22.180Z,98293.00
2022-08-27T13:15:52.908Z,98302.00
2022-08-27T13:18:21.744Z,98298.00
2022-08-27T13:20:53.515Z,98295.00
2022-08-27T13:23:24.245Z,98299.00
2022-08-27T13:26:00.536Z,98313.00
2022-08-27T13:28:29.544Z,98303.00
2022-08-27T13:30:58.356Z,98307.00
2022-08-27T13:33:28.591Z,98298.00
2022-08-27T13:35:59.055Z,98307.00
2022-08-27T13:38:28.143Z,98299.00
2022-08-27T13:40:58.705Z,98304.00
2022-08-27T13:43:35.792Z,98307.00
2022-08-27T13:46:05.522Z,98301.00
2022-08-27T13:48:34.160Z,98297.00
2022-08-27T13:51:07.001Z,98303.00
2022-08-27T13:53:52.425Z,98295.00
2022-08-27T13:56:28.591Z,98294.00
2022-08-27T13:58:56.811Z,98298.00
2022-08-27T14:01:33.449Z,98288.00
2022-08-27T14:04:17.365Z,98291.00
2022-08-27T14:06:47.744Z,98298.00
2022-08-27T14:09:20.007Z,98291.00
2022-08-27T14:11:48.247Z,98288.00
2022-08-27T14:14:16.604Z,98296.00
2022-08-27T14:16:44.844Z,98298.00
2022-08-27T14:19:14.172Z,98298.00
2022-08-27T14:21:43.363Z,98291.00
2022-08-27T14:24:13.790Z,98299.00
2022-08-27T14:26:42.073Z,98292.00
2022-08-27T14:29:11.278Z,98295.00
2022-08-27T14:31:40.634Z,98280.00
2022-08-27T14:34:09.342Z,98274.00
2022-08-27T14:36:37.884Z,98286.00
2022-08-27T14:39:06.171Z,98279.00
2022-08-27T14:41:36.173Z,98278.00
2022-08-27T14:44:33.671Z,98278.00
2022-08-27T14:47:21.502Z,98288.00
2022-08-27T14:49:59.219Z,98290.00
2022-08-27T14:52:49.827Z,98286.00
2022-08-27T14:55:18.763Z,98291.00
2022-08-27T14:58:47.372Z,98285.00
2022-08-27T15:01:17.615Z,98287.00
2022-08-27T15:04:00.211Z,98291.00
2022-08-27T15:10:15.925Z,98291.00
2022-08-27T15:13:14.933Z,98288.00
2022-08-27T15:19:46.207Z,98285.00
2022-08-27T15:22:48.744Z,98285.00
2022-08-27T15:25:57.451Z,98284.00
2022-08-27T15:28:57.609Z,98289.00
2022-08-27T15:31:49.793Z,98285.00
2022-08-27T15:34:18.390Z,98290.00
2022-08-27T15:36:46.776Z,98292.00
2022-08-27T15:39:15.194Z,98299.00
2022-08-27T15:42:05.127Z,98299.00
2022-08-27T15:44:32.261Z,98301.00
2022-08-27T15:47:02.058Z,98304.00
2022-08-27T15:49:30.280Z,98296.00
2022-08-27T15:51:59.584Z,98300.00
2022-08-27T15:54:28.111Z,98300.00
2022-08-27T15:56:56.335Z,98288.00
2022-08-27T15:59:24.841Z,98299.00
2022-08-27T16:01:53.166Z,98298.00
2022-08-27T16:04:22.974Z,98294.00
2022-08-27T16:06:52.203Z,98294.00
2022-08-27T16:09:20.427Z,98310.00
2022-08-27T16:11:48.653Z,98301.00
2022-08-27T16:14:17.108Z,98298.00
2022-08-27T16:16:46.667Z,98309.00
2022-08-27T16:19:16.730Z,98303.00
2022-08-27T16:21:47.066Z,98299.00
2022-08-27T16:24:16.245Z,98296.00
2022-08-27T16:26:44.698Z,98295.00
2022-08-27T16:29:13.937Z,98295.00
2022-08-27T16:31:42.400Z,98296.00
2022-08-27T16:34:15.010Z,98288.00
2022-08-27T16:36:43.483Z,98293.00
2022-08-27T16:39:13.368Z,98296.00
2022-08-27T16:41:41.593Z,98289.00
2022-08-27T16:44:11.001Z,98284.00
2022-08-27T16:46:39.428Z,98294.00
2022-08-27T16:49:25.282Z,98293.00
2022-08-27T16:51:53.527Z,98300.00
2022-08-27T16:54:23.193Z,98300.00
2022-08-27T16:56:51.481Z,98295.00
2022-08-27T16:59:19.715Z,98296.00
2022-08-27T17:01:48.446Z,98301.00
2022-08-27T17:04:26.494Z,98301.00
2022-08-27T17:06:58.176Z,98308.00
2022-08-27T17:09:28.049Z,98313.00
2022-08-27T17:11:57.825Z,98320.00
2022-08-27T17:14:32.290Z,98321.00
2022-08-27T17:17:00.726Z,98321.00
2022-08-27T17:19:29.085Z,98320.00
2022-08-27T17:21:57.456Z,98327.00
2022-08-27T17:24:27.068Z,98332.00
2022-08-27T17:26:56.005Z,98332.00
2022-08-27T17:29:24.408Z,98335.00
2022-08-27T17:31:52.711Z,98332.00
2022-08-27T17:34:22.018Z,98332.00
2022-08-27T17:36:50.357Z,98335.00
2022-08-27T17:39:18.765Z,98329.00
2022-08-27T17:41:50.740Z,98338.00
2022-08-27T17:44:22.974Z,98337.00
2022-08-27T17:46:51.572Z,98341.00
2022-08-27T17:49:19.974Z,98344.00
2022-08-27T17:51:48.646Z,98353.00
2022-08-27T17:54:23.694Z,98346.00
2022-08-27T17:56:53.348Z,98345.00
2022-08-27T17:59:21.992Z,98349.00
2022-08-27T18:01:50.275Z,98350.00
2022-08-27T18:04:18.603Z,98345.00
2022-08-27T18:06:47.548Z,98351.00
2022-08-27T18:09:16.413Z,98345.00
2022-08-27T18:11:45.167Z,98349.00
2022-08-27T18:14:18.328Z,98359.00
2022-08-27T18:16:47.087Z,98361.00
2022-08-27T18:19:15.438Z,98362.00
2022-08-27T18:21:46.883Z,98358.00
2022-08-27T18:24:16.134Z,98366.00
2022-08-27T18:26:44.747Z,98368.00
2022-08-27T18:29:14.498Z,98369.00
2022-08-27T18:31:43.067Z,98370.00
2022-08-27T18:34:11.286Z,98377.00
2022-08-27T18:36:39.619Z,98371.00
2022-08-27T18:39:07.922Z,98380.00
2022-08-27T18:41:36.265Z,98385.00
2022-08-27T18:44:05.105Z,98380.00
2022-08-27T18:46:45.049Z,98392.00
2022-08-27T18:49:13.292Z,98407.00
2022-08-27T18:51:41.945Z,98398.00
2022-08-27T18:54:10.245Z,98400.00
2022-08-27T18:56:38.494Z,98404.00
2022-08-27T18:59:07.048Z,98398.00
2022-08-27T19:01:35.352Z,98402.00
2022-08-27T19:04:05.300Z,98406.00
2022-08-27T19:06:33.558Z,98405.00
2022-08-27T19:09:02.610Z,98411.00
2022-08-27T19:11:32.078Z,98411.00
2022-08-27T19:14:00.382Z,98418.00
2022-08-27T19:16:32.587Z,98423.00
2022-08-27T19:19:01.061Z,98422.00
2022-08-27T19:21:30.848Z,98420.00
2022-08-27T19:23:59.112Z,98426.00
2022-08-27T19:26:27.376Z,98426.00
2022-08-27T19:28:55.613Z,98427.00
2022-08-27T19:31:24.402Z,98431.00
2022-08-27T19:33:52.769Z,98434.00
2022-08-27T19:36:21.157Z,98442.00
2022-08-27T19:38:51.546Z,98441.00
2022-08-27T19:41:19.927Z,98445.00
2022-08-27T19:43:48.203Z,98452.00
2022-08-27T19:46:17.798Z,98451.00
2022-08-27T19:48:46.144Z,98441.00
2022-08-27T19:51:14.531Z,98455.00
2022-08-27T19:53:43.409Z,98453.00
2022-08-27T19:56:14.412Z,98463.00
2022-08-27T19:58:42.794Z,98461.00
2022-08-27T20:01:11.510Z,98465.00
2022-08-27T20:03:39.872Z,98464.00
2022-08-27T20:06:08.478Z,98459.00
2022-08-27T20:08:36.737Z,98450.00
2022-08-27T20:11:04.982Z,98449.00
2022-08-27T20:13:35.091Z,98452.00
2022-08-27T20:16:06.479Z,98448.00
2022-08-27T20:18:41.676Z,98453.00
2022-08-27T20:21:09.923Z,98452.00
2022-08-27T20:23:38.297Z,98448.00
2022-08-27T20:26:06.761Z,98452.00
2022-08-27T20:28:40.265Z,98452.00
2022-08-27T20:31:08.982Z,98453.00
2022-08-27T20:33:38.421Z,98455.00
2022-08-27T20:36:08.048Z,98456.00
2022-08-27T20:38:36.303Z,98458.00
2022-08-27T20:41:05.064Z,98458.00
2022-08-27T20:43:33.435Z,98463.00
2022-08-27T20:46:03.175Z,98462.00
2022-08-27T20:48:31.586Z,98461.00
2022-08-27T20:50:59.845Z,98457.00
2022-08-27T20:53:28.593Z,98463.00
2022-08-27T20:55:56.927Z,98461.00
2022-08-27T20:58:42.693Z,98462.00
2022-08-27T21:01:12.403Z,98459.00
2022-08-27T21:03:40.810Z,98458.00
2022-08-27T21:06:09.097Z,98459.00
2022-08-27T21:08:38.874Z,98460.00
2022-08-27T21:11:10.034Z,98453.00
2022-08-27T21:13:54.885Z,98455.00
2022-08-27T21:16:25.739Z,98446.00
2022-08-27T21:18:55.710Z,98452.00
2022-08-27T21:21:24.278Z,98457.00
2022-08-27T21:23:52.596Z,98454.00
2022-08-27T21:26:23.038Z,98464.00
2022-08-27T21:28:55.791Z,98458.00
2022-08-27T21:31:26.167Z,98456.00
2022-08-27T21:33:54.442Z,98464.00
2022-08-27T21:36:22.676Z,98456.00
2022-08-27T21:38:51.019Z,98460.00
2022-08-27T21:41:19.930Z,98462.00
2022-08-27T21:43:48.296Z,98466.00
2022-08-27T21:46:16.825Z,98461.00
2022-08-27T21:48:46.424Z,98462.00
2022-08-27T21:51:15.807Z,98451.00
2022-08-27T21:53:52.803Z,98465.00
2022-08-27T21:56:21.064Z,98458.00
2022-08-27T21:58:49.329Z,98461.00
2022-08-27T22:01:17.655Z,98472.00
2022-08-27T22:03:49.451Z,98469.00
2022-08-27T22:06:17.958Z,98467.00
2022-08-27T22:08:46.173Z,98479.00
2022-08-27T22:11:14.366Z,98475.00
2022-08-27T22:13:42.830Z,98479.00
2022-08-27T22:16:11.217Z,98475.00
2022-08-27T22:18:39.526Z,98481.00
2022-08-27T22:21:09.247Z,98471.00
2022-08-27T22:23:37.478Z,98479.00
2022-08-27T22:26:05.735Z,98478.00
2022-08-27T22:28:34.006Z,98475.00
2022-08-27T22:31:03.801Z,98481.00
2022-08-27T22:33:32.443Z,98481.00
2022-08-27T22:36:00.726Z,98474.00
2022-08-27T22:38:30.426Z,98473.00
2022-08-27T22:40:58.657Z,98472.00
2022-08-27T22:43:26.883Z,98479.00
2022-08-27T22:45:55.101Z,98479.00
2022-08-27T22:48:23.536Z,98481.00
2022-08-27T22:50:51.792Z,98482.00
2022-08-27T22:53:20.041Z,98475.00
2022-08-27T22:55:50.417Z,98480.00
2022-08-27T22:58:19.363Z,98480.00
2022-08-27T23:00:54.759Z,98484.00
2022-08-27T23:03:23.054Z,98479.00
2022-08-27T23:05:51.347Z,98485.00
2022-08-27T23:08:19.759Z,98483.00
2022-08-27T23:10:49.644Z,98489.00
2022-08-27T23:13:17.869Z,98488.00
2022-08-27T23:15:46.249Z,98491.00
2022-08-27T23:18:14.612Z,98491.00
2022-08-27T23:20:43.006Z,98486.00
2022-08-27T23:23:11.252Z,98484.00
2022-08-27T23:26:08.457Z,98484.00
2022-08-27T23:28:39.085Z,98477.00
2022-08-27T23:31:07.658Z,98485.00
2022-08-27T23:33:35.943Z,98481.00
2022-08-27T23:36:04.850Z,98480.00
2022-08-27T23:38:33.904Z,98477.00
2022-08-27T23:41:02.113Z,98485.00
2022-08-27T23:43:30.313Z,98486.00
2022-08-27T23:45:59.987Z,98482.00
2022-08-27T23:48:28.191Z,98480.00
2022-08-27T23:50:56.376Z,98484.00
2022-08-27T23:53:24.567Z,98478.00
2022-08-27T23:55:52.734Z,98484.00
2022-08-27T23:58:20.929Z,98482.00
